sensor_id;sensor_type;location;lat;lon;timestamp;P1;durP1;ratioP1;P2;durP2;ratioP2
22034;SDS011;11181;51.002;4.356;2023-05-18T00:00:22;10.37;;;2.40;;
22034;SDS011;11181;51.002;4.356;2023-05-18T00:02:49;7.80;;;2.80;;
22034;SDS011;11181;51.002;4.356;2023-05-18T00:05:16;6.87;;;2.20;;
22034;SDS011;11181;51.002;4.356;2023-05-18T00:07:43;7.00;;;2.97;;
22034;SDS011;11181;51.002;4.356;2023-05-18T00:10:12;4.30;;;1.90;;
22034;SDS011;11181;51.002;4.356;2023-05-18T00:12:39;7.03;;;2.37;;
22034;SDS011;11181;51.002;4.356;2023-05-18T00:15:06;7.13;;;1.90;;
22034;SDS011;11181;51.002;4.356;2023-05-18T00:17:34;9.87;;;2.33;;
22034;SDS011;11181;51.002;4.356;2023-05-18T00:20:01;5.97;;;2.20;;
22034;SDS011;11181;51.002;4.356;2023-05-18T00:22:29;5.17;;;2.00;;
22034;SDS011;11181;51.002;4.356;2023-05-18T00:24:56;8.43;;;2.20;;
22034;SDS011;11181;51.002;4.356;2023-05-18T00:27:24;4.20;;;2.13;;
22034;SDS011;11181;51.002;4.356;2023-05-18T00:29:51;9.77;;;2.30;;
22034;SDS011;11181;51.002;4.356;2023-05-18T00:32:18;7.30;;;2.43;;
22034;SDS011;11181;51.002;4.356;2023-05-18T00:34:45;5.20;;;2.00;;
22034;SDS011;11181;51.002;4.356;2023-05-18T00:37:12;5.00;;;2.13;;
22034;SDS011;11181;51.002;4.356;2023-05-18T00:39:39;7.23;;;1.90;;
22034;SDS011;11181;51.002;4.356;2023-05-18T00:42:05;9.07;;;2.80;;
22034;SDS011;11181;51.002;4.356;2023-05-18T00:44:34;7.13;;;1.93;;
22034;SDS011;11181;51.002;4.356;2023-05-18T00:47:00;10.47;;;2.67;;
22034;SDS011;11181;51.002;4.356;2023-05-18T00:49:27;6.37;;;2.30;;
22034;SDS011;11181;51.002;4.356;2023-05-18T00:51:54;7.87;;;2.13;;
22034;SDS011;11181;51.002;4.356;2023-05-18T00:54:22;5.63;;;1.90;;
22034;SDS011;11181;51.002;4.356;2023-05-18T00:56:50;11.73;;;2.50;;
22034;SDS011;11181;51.002;4.356;2023-05-18T00:59:16;6.63;;;2.60;;
22034;SDS011;11181;51.002;4.356;2023-05-18T01:01:45;5.43;;;1.93;;
22034;SDS011;11181;51.002;4.356;2023-05-18T01:04:12;5.80;;;2.57;;
22034;SDS011;11181;51.002;4.356;2023-05-18T01:06:40;6.90;;;2.40;;
22034;SDS011;11181;51.002;4.356;2023-05-18T01:09:08;9.83;;;1.93;;
22034;SDS011;11181;51.002;4.356;2023-05-18T01:11:38;8.63;;;2.30;;
22034;SDS011;11181;51.002;4.356;2023-05-18T01:14:16;5.23;;;2.23;;
22034;SDS011;11181;51.002;4.356;2023-05-18T01:16:50;7.27;;;2.30;;
22034;SDS011;11181;51.002;4.356;2023-05-18T01:19:29;4.73;;;1.80;;
22034;SDS011;11181;51.002;4.356;2023-05-18T01:22:16;6.67;;;1.93;;
22034;SDS011;11181;51.002;4.356;2023-05-18T01:24:58;8.10;;;2.50;;
22034;SDS011;11181;51.002;4.356;2023-05-18T01:27:32;6.03;;;2.43;;
22034;SDS011;11181;51.002;4.356;2023-05-18T01:30:02;8.30;;;2.80;;
22034;SDS011;11181;51.002;4.356;2023-05-18T01:32:29;5.70;;;2.27;;
22034;SDS011;11181;51.002;4.356;2023-05-18T01:35:05;3.83;;;2.37;;
22034;SDS011;11181;51.002;4.356;2023-05-18T01:37:32;9.67;;;2.33;;
22034;SDS011;11181;51.002;4.356;2023-05-18T01:39:59;4.73;;;2.10;;
22034;SDS011;11181;51.002;4.356;2023-05-18T01:42:26;4.83;;;2.10;;
22034;SDS011;11181;51.002;4.356;2023-05-18T01:44:57;4.43;;;2.30;;
22034;SDS011;11181;51.002;4.356;2023-05-18T01:47:27;7.27;;;2.47;;
22034;SDS011;11181;51.002;4.356;2023-05-18T01:49:58;6.10;;;2.03;;
22034;SDS011;11181;51.002;4.356;2023-05-18T01:52:31;6.20;;;2.50;;
22034;SDS011;11181;51.002;4.356;2023-05-18T01:55:02;9.47;;;2.73;;
22034;SDS011;11181;51.002;4.356;2023-05-18T01:57:30;5.97;;;2.33;;
22034;SDS011;11181;51.002;4.356;2023-05-18T02:00:00;4.10;;;2.20;;
22034;SDS011;11181;51.002;4.356;2023-05-18T02:02:32;10.90;;;2.93;;
22034;SDS011;11181;51.002;4.356;2023-05-18T02:04:59;7.20;;;2.23;;
22034;SDS011;11181;51.002;4.356;2023-05-18T02:07:25;7.20;;;2.50;;
22034;SDS011;11181;51.002;4.356;2023-05-18T02:09:53;4.57;;;2.53;;
22034;SDS011;11181;51.002;4.356;2023-05-18T02:12:19;7.07;;;3.07;;
22034;SDS011;11181;51.002;4.356;2023-05-18T02:14:46;4.73;;;2.67;;
22034;SDS011;11181;51.002;4.356;2023-05-18T02:17:15;7.17;;;2.50;;
22034;SDS011;11181;51.002;4.356;2023-05-18T02:19:41;9.53;;;2.30;;
22034;SDS011;11181;51.002;4.356;2023-05-18T02:22:08;7.53;;;2.33;;
22034;SDS011;11181;51.002;4.356;2023-05-18T02:24:35;10.40;;;2.50;;
22034;SDS011;11181;51.002;4.356;2023-05-18T02:27:02;9.07;;;2.90;;
22034;SDS011;11181;51.002;4.356;2023-05-18T02:29:30;5.57;;;1.83;;
22034;SDS011;11181;51.002;4.356;2023-05-18T02:31:57;4.30;;;2.80;;
22034;SDS011;11181;51.002;4.356;2023-05-18T02:34:26;5.83;;;2.10;;
22034;SDS011;11181;51.002;4.356;2023-05-18T02:36:56;4.93;;;2.33;;
22034;SDS011;11181;51.002;4.356;2023-05-18T02:39:27;5.03;;;2.73;;
22034;SDS011;11181;51.002;4.356;2023-05-18T02:41:54;9.13;;;2.70;;
22034;SDS011;11181;51.002;4.356;2023-05-18T02:44:21;8.27;;;2.63;;
22034;SDS011;11181;51.002;4.356;2023-05-18T02:46:48;6.03;;;2.67;;
22034;SDS011;11181;51.002;4.356;2023-05-18T02:49:15;10.73;;;2.33;;
22034;SDS011;11181;51.002;4.356;2023-05-18T02:51:43;7.73;;;3.23;;
22034;SDS011;11181;51.002;4.356;2023-05-18T02:54:10;6.63;;;2.67;;
22034;SDS011;11181;51.002;4.356;2023-05-18T02:56:37;4.73;;;2.57;;
22034;SDS011;11181;51.002;4.356;2023-05-18T02:59:05;6.50;;;2.63;;
22034;SDS011;11181;51.002;4.356;2023-05-18T03:01:32;5.47;;;2.80;;
22034;SDS011;11181;51.002;4.356;2023-05-18T03:04:01;7.37;;;2.40;;
22034;SDS011;11181;51.002;4.356;2023-05-18T03:06:28;7.27;;;2.73;;
22034;SDS011;11181;51.002;4.356;2023-05-18T03:08:56;8.57;;;2.77;;
22034;SDS011;11181;51.002;4.356;2023-05-18T03:11:23;5.80;;;2.73;;
22034;SDS011;11181;51.002;4.356;2023-05-18T03:13:51;5.77;;;2.73;;
22034;SDS011;11181;51.002;4.356;2023-05-18T03:16:18;4.50;;;2.50;;
22034;SDS011;11181;51.002;4.356;2023-05-18T03:18:45;11.03;;;2.60;;
22034;SDS011;11181;51.002;4.356;2023-05-18T03:21:12;7.87;;;2.67;;
22034;SDS011;11181;51.002;4.356;2023-05-18T03:23:40;4.57;;;2.47;;
22034;SDS011;11181;51.002;4.356;2023-05-18T03:26:08;4.67;;;2.50;;
22034;SDS011;11181;51.002;4.356;2023-05-18T03:28:36;5.97;;;2.60;;
22034;SDS011;11181;51.002;4.356;2023-05-18T03:31:03;6.17;;;2.90;;
22034;SDS011;11181;51.002;4.356;2023-05-18T03:33:30;3.33;;;2.23;;
22034;SDS011;11181;51.002;4.356;2023-05-18T03:36:00;6.77;;;2.63;;
22034;SDS011;11181;51.002;4.356;2023-05-18T03:38:29;9.13;;;2.80;;
22034;SDS011;11181;51.002;4.356;2023-05-18T03:40:55;6.73;;;2.50;;
22034;SDS011;11181;51.002;4.356;2023-05-18T03:43:24;6.90;;;3.57;;
22034;SDS011;11181;51.002;4.356;2023-05-18T03:45:53;7.23;;;2.70;;
22034;SDS011;11181;51.002;4.356;2023-05-18T03:48:21;4.50;;;2.23;;
22034;SDS011;11181;51.002;4.356;2023-05-18T03:50:48;7.83;;;3.10;;
22034;SDS011;11181;51.002;4.356;2023-05-18T03:53:15;6.57;;;2.80;;
22034;SDS011;11181;51.002;4.356;2023-05-18T03:55:43;6.63;;;2.50;;
22034;SDS011;11181;51.002;4.356;2023-05-18T03:58:10;7.43;;;2.77;;
22034;SDS011;11181;51.002;4.356;2023-05-18T04:00:38;3.57;;;2.70;;
22034;SDS011;11181;51.002;4.356;2023-05-18T04:03:06;7.97;;;2.67;;
22034;SDS011;11181;51.002;4.356;2023-05-18T04:05:36;7.10;;;2.40;;
22034;SDS011;11181;51.002;4.356;2023-05-18T04:08:03;5.73;;;2.93;;
22034;SDS011;11181;51.002;4.356;2023-05-18T04:10:31;4.80;;;2.37;;
22034;SDS011;11181;51.002;4.356;2023-05-18T04:12:58;9.30;;;2.80;;
22034;SDS011;11181;51.002;4.356;2023-05-18T04:15:25;6.67;;;2.97;;
22034;SDS011;11181;51.002;4.356;2023-05-18T04:17:53;4.03;;;2.60;;
22034;SDS011;11181;51.002;4.356;2023-05-18T04:20:20;5.17;;;3.10;;
22034;SDS011;11181;51.002;4.356;2023-05-18T04:22:47;8.63;;;3.10;;
22034;SDS011;11181;51.002;4.356;2023-05-18T04:25:14;4.33;;;2.67;;
22034;SDS011;11181;51.002;4.356;2023-05-18T04:27:42;5.27;;;2.70;;
22034;SDS011;11181;51.002;4.356;2023-05-18T04:30:10;4.33;;;2.67;;
22034;SDS011;11181;51.002;4.356;2023-05-18T04:32:38;8.03;;;3.00;;
22034;SDS011;11181;51.002;4.356;2023-05-18T04:35:08;6.07;;;2.27;;
22034;SDS011;11181;51.002;4.356;2023-05-18T04:37:36;7.90;;;2.53;;
22034;SDS011;11181;51.002;4.356;2023-05-18T04:40:05;8.10;;;2.83;;
22034;SDS011;11181;51.002;4.356;2023-05-18T04:42:32;6.20;;;2.57;;
22034;SDS011;11181;51.002;4.356;2023-05-18T04:45:00;8.33;;;2.80;;
22034;SDS011;11181;51.002;4.356;2023-05-18T04:47:29;7.43;;;3.13;;
22034;SDS011;11181;51.002;4.356;2023-05-18T04:49:56;11.43;;;3.50;;
22034;SDS011;11181;51.002;4.356;2023-05-18T04:52:25;5.47;;;2.80;;
22034;SDS011;11181;51.002;4.356;2023-05-18T04:54:54;6.63;;;2.93;;
22034;SDS011;11181;51.002;4.356;2023-05-18T04:57:21;6.40;;;2.53;;
22034;SDS011;11181;51.002;4.356;2023-05-18T04:59:48;5.10;;;2.60;;
22034;SDS011;11181;51.002;4.356;2023-05-18T05:02:17;7.00;;;2.90;;
22034;SDS011;11181;51.002;4.356;2023-05-18T05:04:44;5.50;;;2.63;;
22034;SDS011;11181;51.002;4.356;2023-05-18T05:07:11;5.40;;;2.83;;
22034;SDS011;11181;51.002;4.356;2023-05-18T05:09:40;8.00;;;3.20;;
22034;SDS011;11181;51.002;4.356;2023-05-18T05:12:07;5.17;;;2.73;;
22034;SDS011;11181;51.002;4.356;2023-05-18T05:14:34;8.87;;;3.00;;
22034;SDS011;11181;51.002;4.356;2023-05-18T05:17:03;5.40;;;2.40;;
22034;SDS011;11181;51.002;4.356;2023-05-18T05:19:30;10.90;;;3.57;;
22034;SDS011;11181;51.002;4.356;2023-05-18T05:21:57;7.87;;;3.20;;
22034;SDS011;11181;51.002;4.356;2023-05-18T05:24:24;10.20;;;2.97;;
22034;SDS011;11181;51.002;4.356;2023-05-18T05:26:52;8.20;;;3.20;;
22034;SDS011;11181;51.002;4.356;2023-05-18T05:29:19;8.43;;;3.47;;
22034;SDS011;11181;51.002;4.356;2023-05-18T05:31:46;8.53;;;3.30;;
22034;SDS011;11181;51.002;4.356;2023-05-18T05:34:13;10.40;;;3.07;;
22034;SDS011;11181;51.002;4.356;2023-05-18T05:36:40;4.70;;;3.00;;
22034;SDS011;11181;51.002;4.356;2023-05-18T05:39:07;8.23;;;2.53;;
22034;SDS011;11181;51.002;4.356;2023-05-18T05:41:34;6.47;;;2.97;;
22034;SDS011;11181;51.002;4.356;2023-05-18T05:44:02;6.57;;;2.80;;
22034;SDS011;11181;51.002;4.356;2023-05-18T05:46:29;7.90;;;2.80;;
22034;SDS011;11181;51.002;4.356;2023-05-18T05:48:56;7.40;;;3.27;;
22034;SDS011;11181;51.002;4.356;2023-05-18T05:51:24;10.30;;;3.40;;
22034;SDS011;11181;51.002;4.356;2023-05-18T05:53:51;7.87;;;3.60;;
22034;SDS011;11181;51.002;4.356;2023-05-18T05:56:18;7.97;;;3.57;;
22034;SDS011;11181;51.002;4.356;2023-05-18T05:58:45;6.40;;;2.50;;
22034;SDS011;11181;51.002;4.356;2023-05-18T06:01:13;7.17;;;2.67;;
22034;SDS011;11181;51.002;4.356;2023-05-18T06:03:40;6.60;;;3.00;;
22034;SDS011;11181;51.002;4.356;2023-05-18T06:06:09;5.00;;;3.00;;
22034;SDS011;11181;51.002;4.356;2023-05-18T06:08:36;6.63;;;3.47;;
22034;SDS011;11181;51.002;4.356;2023-05-18T06:11:03;7.73;;;2.83;;
22034;SDS011;11181;51.002;4.356;2023-05-18T06:13:30;5.07;;;2.97;;
22034;SDS011;11181;51.002;4.356;2023-05-18T06:15:57;5.43;;;2.83;;
22034;SDS011;11181;51.002;4.356;2023-05-18T06:18:25;5.17;;;3.60;;
22034;SDS011;11181;51.002;4.356;2023-05-18T06:20:52;5.47;;;2.60;;
22034;SDS011;11181;51.002;4.356;2023-05-18T06:23:19;11.17;;;4.00;;
22034;SDS011;11181;51.002;4.356;2023-05-18T06:25:47;6.03;;;3.07;;
22034;SDS011;11181;51.002;4.356;2023-05-18T06:28:14;4.50;;;3.00;;
22034;SDS011;11181;51.002;4.356;2023-05-18T06:30:42;5.17;;;3.33;;
22034;SDS011;11181;51.002;4.356;2023-05-18T06:33:09;8.53;;;3.10;;
22034;SDS011;11181;51.002;4.356;2023-05-18T06:35:37;9.43;;;3.23;;
22034;SDS011;11181;51.002;4.356;2023-05-18T06:38:05;9.90;;;3.47;;
22034;SDS011;11181;51.002;4.356;2023-05-18T06:40:32;7.57;;;3.23;;
22034;SDS011;11181;51.002;4.356;2023-05-18T06:42:59;7.27;;;3.20;;
22034;SDS011;11181;51.002;4.356;2023-05-18T06:45:26;12.23;;;3.83;;
22034;SDS011;11181;51.002;4.356;2023-05-18T06:47:53;11.57;;;4.83;;
22034;SDS011;11181;51.002;4.356;2023-05-18T06:50:20;8.57;;;3.80;;
22034;SDS011;11181;51.002;4.356;2023-05-18T06:52:49;5.93;;;3.33;;
22034;SDS011;11181;51.002;4.356;2023-05-18T06:55:16;9.03;;;4.40;;
22034;SDS011;11181;51.002;4.356;2023-05-18T06:57:43;8.07;;;4.20;;
22034;SDS011;11181;51.002;4.356;2023-05-18T07:00:10;9.13;;;3.67;;
22034;SDS011;11181;51.002;4.356;2023-05-18T07:02:38;6.03;;;4.20;;
22034;SDS011;11181;51.002;4.356;2023-05-18T07:05:07;8.27;;;3.73;;
22034;SDS011;11181;51.002;4.356;2023-05-18T07:07:34;11.53;;;3.90;;
22034;SDS011;11181;51.002;4.356;2023-05-18T07:10:03;8.87;;;3.83;;
22034;SDS011;11181;51.002;4.356;2023-05-18T07:12:31;8.27;;;3.63;;
22034;SDS011;11181;51.002;4.356;2023-05-18T07:14:58;4.50;;;3.40;;
22034;SDS011;11181;51.002;4.356;2023-05-18T07:17:24;7.67;;;3.83;;
22034;SDS011;11181;51.002;4.356;2023-05-18T07:19:51;7.37;;;4.37;;
22034;SDS011;11181;51.002;4.356;2023-05-18T07:22:18;8.00;;;4.20;;
22034;SDS011;11181;51.002;4.356;2023-05-18T07:24:45;6.57;;;4.10;;
22034;SDS011;11181;51.002;4.356;2023-05-18T07:27:14;5.50;;;3.40;;
22034;SDS011;11181;51.002;4.356;2023-05-18T07:29:41;7.23;;;4.33;;
22034;SDS011;11181;51.002;4.356;2023-05-18T07:32:08;7.33;;;3.73;;
22034;SDS011;11181;51.002;4.356;2023-05-18T07:34:35;11.53;;;4.17;;
22034;SDS011;11181;51.002;4.356;2023-05-18T07:37:02;10.73;;;4.27;;
22034;SDS011;11181;51.002;4.356;2023-05-18T07:39:30;5.33;;;3.77;;
22034;SDS011;11181;51.002;4.356;2023-05-18T07:41:57;9.20;;;3.90;;
22034;SDS011;11181;51.002;4.356;2023-05-18T07:44:26;9.07;;;4.17;;
22034;SDS011;11181;51.002;4.356;2023-05-18T07:46:53;6.03;;;4.23;;
22034;SDS011;11181;51.002;4.356;2023-05-18T07:49:20;6.80;;;3.67;;
22034;SDS011;11181;51.002;4.356;2023-05-18T07:51:47;7.53;;;4.13;;
22034;SDS011;11181;51.002;4.356;2023-05-18T07:54:14;10.90;;;4.40;;
22034;SDS011;11181;51.002;4.356;2023-05-18T07:56:41;7.97;;;3.93;;
22034;SDS011;11181;51.002;4.356;2023-05-18T07:59:08;7.60;;;4.23;;
22034;SDS011;11181;51.002;4.356;2023-05-18T08:01:38;11.30;;;4.13;;
22034;SDS011;11181;51.002;4.356;2023-05-18T08:04:05;6.97;;;4.57;;
22034;SDS011;11181;51.002;4.356;2023-05-18T08:06:32;7.83;;;4.10;;
22034;SDS011;11181;51.002;4.356;2023-05-18T08:08:59;7.43;;;4.03;;
22034;SDS011;11181;51.002;4.356;2023-05-18T08:11:26;8.03;;;4.80;;
22034;SDS011;11181;51.002;4.356;2023-05-18T08:13:53;7.80;;;4.23;;
22034;SDS011;11181;51.002;4.356;2023-05-18T08:16:20;9.07;;;4.00;;
22034;SDS011;11181;51.002;4.356;2023-05-18T08:18:48;7.27;;;3.67;;
22034;SDS011;11181;51.002;4.356;2023-05-18T08:21:15;12.33;;;4.67;;
22034;SDS011;11181;51.002;4.356;2023-05-18T08:23:45;10.13;;;4.13;;
22034;SDS011;11181;51.002;4.356;2023-05-18T08:26:12;8.30;;;4.10;;
22034;SDS011;11181;51.002;4.356;2023-05-18T08:28:39;9.03;;;4.50;;
22034;SDS011;11181;51.002;4.356;2023-05-18T08:31:06;11.13;;;4.13;;
22034;SDS011;11181;51.002;4.356;2023-05-18T08:33:33;9.27;;;4.03;;
22034;SDS011;11181;51.002;4.356;2023-05-18T08:36:01;8.80;;;4.27;;
22034;SDS011;11181;51.002;4.356;2023-05-18T08:38:32;8.23;;;4.07;;
22034;SDS011;11181;51.002;4.356;2023-05-18T08:41:01;5.53;;;3.93;;
22034;SDS011;11181;51.002;4.356;2023-05-18T08:43:34;6.77;;;3.97;;
22034;SDS011;11181;51.002;4.356;2023-05-18T08:46:18;7.50;;;4.40;;
22034;SDS011;11181;51.002;4.356;2023-05-18T08:48:46;8.30;;;3.97;;
22034;SDS011;11181;51.002;4.356;2023-05-18T08:51:19;6.97;;;4.07;;
22034;SDS011;11181;51.002;4.356;2023-05-18T08:53:47;8.73;;;4.00;;
22034;SDS011;11181;51.002;4.356;2023-05-18T08:56:17;8.23;;;3.53;;
22034;SDS011;11181;51.002;4.356;2023-05-18T08:58:53;7.57;;;5.50;;
22034;SDS011;11181;51.002;4.356;2023-05-18T09:01:21;7.60;;;3.83;;
22034;SDS011;11181;51.002;4.356;2023-05-18T09:03:52;6.60;;;3.73;;
22034;SDS011;11181;51.002;4.356;2023-05-18T09:06:20;8.00;;;3.77;;
22034;SDS011;11181;51.002;4.356;2023-05-18T09:08:50;8.50;;;3.87;;
22034;SDS011;11181;51.002;4.356;2023-05-18T09:11:18;12.77;;;4.10;;
22034;SDS011;11181;51.002;4.356;2023-05-18T09:13:47;9.47;;;3.60;;
22034;SDS011;11181;51.002;4.356;2023-05-18T09:16:15;11.47;;;4.27;;
22034;SDS011;11181;51.002;4.356;2023-05-18T09:18:42;4.73;;;2.93;;
22034;SDS011;11181;51.002;4.356;2023-05-18T09:21:09;5.90;;;2.87;;
22034;SDS011;11181;51.002;4.356;2023-05-18T09:23:38;4.50;;;2.90;;
22034;SDS011;11181;51.002;4.356;2023-05-18T09:26:06;7.43;;;3.23;;
22034;SDS011;11181;51.002;4.356;2023-05-18T09:28:36;6.53;;;2.90;;
22034;SDS011;11181;51.002;4.356;2023-05-18T09:31:03;7.57;;;2.73;;
22034;SDS011;11181;51.002;4.356;2023-05-18T09:33:33;6.53;;;2.67;;
22034;SDS011;11181;51.002;4.356;2023-05-18T09:36:03;4.97;;;2.27;;
22034;SDS011;11181;51.002;4.356;2023-05-18T09:38:35;5.93;;;2.73;;
22034;SDS011;11181;51.002;4.356;2023-05-18T09:41:05;5.47;;;2.70;;
22034;SDS011;11181;51.002;4.356;2023-05-18T09:43:35;6.47;;;2.83;;
22034;SDS011;11181;51.002;4.356;2023-05-18T09:46:04;7.93;;;3.07;;
22034;SDS011;11181;51.002;4.356;2023-05-18T09:48:33;9.47;;;3.23;;
22034;SDS011;11181;51.002;4.356;2023-05-18T09:51:02;4.87;;;2.30;;
22034;SDS011;11181;51.002;4.356;2023-05-18T09:53:30;5.73;;;3.00;;
22034;SDS011;11181;51.002;4.356;2023-05-18T09:56:02;8.37;;;3.27;;
22034;SDS011;11181;51.002;4.356;2023-05-18T09:58:33;6.60;;;3.03;;
22034;SDS011;11181;51.002;4.356;2023-05-18T10:01:01;7.63;;;2.77;;
22034;SDS011;11181;51.002;4.356;2023-05-18T10:03:30;6.27;;;3.17;;
22034;SDS011;11181;51.002;4.356;2023-05-18T10:06:02;5.47;;;3.47;;
22034;SDS011;11181;51.002;4.356;2023-05-18T10:08:30;6.63;;;3.37;;
22034;SDS011;11181;51.002;4.356;2023-05-18T10:10:57;5.93;;;3.53;;
22034;SDS011;11181;51.002;4.356;2023-05-18T10:13:26;7.53;;;3.43;;
22034;SDS011;11181;51.002;4.356;2023-05-18T10:15:56;6.93;;;2.83;;
22034;SDS011;11181;51.002;4.356;2023-05-18T10:18:24;9.40;;;3.50;;
22034;SDS011;11181;51.002;4.356;2023-05-18T10:20:53;6.87;;;2.90;;
22034;SDS011;11181;51.002;4.356;2023-05-18T10:23:21;7.30;;;3.17;;
22034;SDS011;11181;51.002;4.356;2023-05-18T10:25:50;9.67;;;3.43;;
22034;SDS011;11181;51.002;4.356;2023-05-18T10:28:19;6.90;;;3.70;;
22034;SDS011;11181;51.002;4.356;2023-05-18T10:30:51;11.63;;;3.37;;
22034;SDS011;11181;51.002;4.356;2023-05-18T10:33:20;6.80;;;3.03;;
22034;SDS011;11181;51.002;4.356;2023-05-18T10:35:48;6.03;;;2.80;;
22034;SDS011;11181;51.002;4.356;2023-05-18T10:38:19;5.40;;;2.70;;
22034;SDS011;11181;51.002;4.356;2023-05-18T10:40:48;5.80;;;3.27;;
22034;SDS011;11181;51.002;4.356;2023-05-18T10:43:17;6.40;;;3.43;;
22034;SDS011;11181;51.002;4.356;2023-05-18T10:45:46;5.37;;;2.77;;
22034;SDS011;11181;51.002;4.356;2023-05-18T10:48:19;7.63;;;3.50;;
22034;SDS011;11181;51.002;4.356;2023-05-18T10:50:47;4.93;;;2.63;;
22034;SDS011;11181;51.002;4.356;2023-05-18T10:53:15;4.97;;;3.07;;
22034;SDS011;11181;51.002;4.356;2023-05-18T10:55:45;8.50;;;3.40;;
22034;SDS011;11181;51.002;4.356;2023-05-18T10:58:13;4.03;;;2.50;;
22034;SDS011;11181;51.002;4.356;2023-05-18T11:00:43;6.13;;;3.00;;
22034;SDS011;11181;51.002;4.356;2023-05-18T11:03:13;7.07;;;2.97;;
22034;SDS011;11181;51.002;4.356;2023-05-18T11:05:43;6.40;;;2.80;;
22034;SDS011;11181;51.002;4.356;2023-05-18T11:08:23;9.27;;;3.20;;
22034;SDS011;11181;51.002;4.356;2023-05-18T11:10:57;6.70;;;3.80;;
22034;SDS011;11181;51.002;4.356;2023-05-18T11:13:27;5.57;;;3.43;;
22034;SDS011;11181;51.002;4.356;2023-05-18T11:16:01;7.40;;;3.63;;
22034;SDS011;11181;51.002;4.356;2023-05-18T11:18:35;11.53;;;3.87;;
22034;SDS011;11181;51.002;4.356;2023-05-18T11:24:23;8.40;;;3.47;;
22034;SDS011;11181;51.002;4.356;2023-05-18T11:26:55;7.93;;;3.50;;
22034;SDS011;11181;51.002;4.356;2023-05-18T11:29:23;9.67;;;3.73;;
22034;SDS011;11181;51.002;4.356;2023-05-18T11:31:56;7.77;;;3.73;;
22034;SDS011;11181;51.002;4.356;2023-05-18T11:34:38;9.87;;;3.97;;
22034;SDS011;11181;51.002;4.356;2023-05-18T11:37:10;5.70;;;3.33;;
22034;SDS011;11181;51.002;4.356;2023-05-18T11:39:38;9.47;;;4.17;;
22034;SDS011;11181;51.002;4.356;2023-05-18T11:42:05;9.67;;;4.73;;
22034;SDS011;11181;51.002;4.356;2023-05-18T11:44:33;5.37;;;3.97;;
22034;SDS011;11181;51.002;4.356;2023-05-18T11:47:01;6.93;;;3.93;;
22034;SDS011;11181;51.002;4.356;2023-05-18T11:49:30;7.67;;;4.30;;
22034;SDS011;11181;51.002;4.356;2023-05-18T11:52:02;7.63;;;3.80;;
22034;SDS011;11181;51.002;4.356;2023-05-18T11:54:38;9.47;;;4.27;;
22034;SDS011;11181;51.002;4.356;2023-05-18T11:57:07;11.67;;;3.90;;
22034;SDS011;11181;51.002;4.356;2023-05-18T11:59:36;6.07;;;4.33;;
22034;SDS011;11181;51.002;4.356;2023-05-18T12:02:05;6.53;;;3.77;;
22034;SDS011;11181;51.002;4.356;2023-05-18T12:04:35;10.57;;;4.00;;
22034;SDS011;11181;51.002;4.356;2023-05-18T12:07:08;8.77;;;4.33;;
22034;SDS011;11181;51.002;4.356;2023-05-18T12:09:36;6.87;;;3.23;;
22034;SDS011;11181;51.002;4.356;2023-05-18T12:12:09;6.07;;;2.97;;
22034;SDS011;11181;51.002;4.356;2023-05-18T12:14:37;9.17;;;4.27;;
22034;SDS011;11181;51.002;4.356;2023-05-18T12:17:06;8.67;;;3.97;;
22034;SDS011;11181;51.002;4.356;2023-05-18T12:19:37;6.53;;;3.75;;
22034;SDS011;11181;51.002;4.356;2023-05-18T12:22:07;5.55;;;3.50;;
22034;SDS011;11181;51.002;4.356;2023-05-18T12:24:34;7.53;;;3.47;;
22034;SDS011;11181;51.002;4.356;2023-05-18T12:27:03;6.32;;;3.15;;
22034;SDS011;11181;51.002;4.356;2023-05-18T12:29:39;8.80;;;5.25;;
22034;SDS011;11181;51.002;4.356;2023-05-18T12:32:07;5.88;;;3.28;;
22034;SDS011;11181;51.002;4.356;2023-05-18T12:34:35;8.18;;;3.42;;
22034;SDS011;11181;51.002;4.356;2023-05-18T12:37:03;8.95;;;3.20;;
22034;SDS011;11181;51.002;4.356;2023-05-18T12:39:31;5.95;;;2.78;;
22034;SDS011;11181;51.002;4.356;2023-05-18T12:42:10;4.60;;;3.20;;
22034;SDS011;11181;51.002;4.356;2023-05-18T12:44:38;9.15;;;3.15;;
22034;SDS011;11181;51.002;4.356;2023-05-18T12:47:07;9.57;;;3.60;;
22034;SDS011;11181;51.002;4.356;2023-05-18T12:49:36;7.50;;;3.40;;
22034;SDS011;11181;51.002;4.356;2023-05-18T12:52:07;8.70;;;3.72;;
22034;SDS011;11181;51.002;4.356;2023-05-18T12:54:35;6.15;;;3.20;;
22034;SDS011;11181;51.002;4.356;2023-05-18T12:57:15;7.95;;;3.33;;
22034;SDS011;11181;51.002;4.356;2023-05-18T12:59:46;5.40;;;2.90;;
22034;SDS011;11181;51.002;4.356;2023-05-18T13:02:26;9.32;;;2.95;;
22034;SDS011;11181;51.002;4.356;2023-05-18T13:05:01;8.52;;;3.45;;
22034;SDS011;11181;51.002;4.356;2023-05-18T13:07:30;6.68;;;2.83;;
22034;SDS011;11181;51.002;4.356;2023-05-18T13:10:01;7.03;;;3.72;;
22034;SDS011;11181;51.002;4.356;2023-05-18T13:12:42;7.57;;;3.40;;
22034;SDS011;11181;51.002;4.356;2023-05-18T13:15:11;7.97;;;3.08;;
22034;SDS011;11181;51.002;4.356;2023-05-18T13:17:46;4.95;;;2.35;;
22034;SDS011;11181;51.002;4.356;2023-05-18T13:20:14;8.82;;;3.38;;
22034;SDS011;11181;51.002;4.356;2023-05-18T13:22:42;7.55;;;3.30;;
22034;SDS011;11181;51.002;4.356;2023-05-18T13:25:09;29.58;;;3.30;;
22034;SDS011;11181;51.002;4.356;2023-05-18T13:27:36;6.25;;;2.90;;
22034;SDS011;11181;51.002;4.356;2023-05-18T13:30:05;11.15;;;3.10;;
22034;SDS011;11181;51.002;4.356;2023-05-18T13:32:33;8.82;;;3.38;;
22034;SDS011;11181;51.002;4.356;2023-05-18T13:35:00;5.50;;;3.08;;
22034;SDS011;11181;51.002;4.356;2023-05-18T13:37:27;6.88;;;3.10;;
22034;SDS011;11181;51.002;4.356;2023-05-18T13:39:55;4.43;;;2.75;;
22034;SDS011;11181;51.002;4.356;2023-05-18T13:42:22;7.35;;;3.03;;
22034;SDS011;11181;51.002;4.356;2023-05-18T13:44:48;4.85;;;2.78;;
22034;SDS011;11181;51.002;4.356;2023-05-18T13:47:17;5.53;;;2.75;;
22034;SDS011;11181;51.002;4.356;2023-05-18T13:49:44;5.28;;;2.78;;
22034;SDS011;11181;51.002;4.356;2023-05-18T13:52:11;5.45;;;2.50;;
22034;SDS011;11181;51.002;4.356;2023-05-18T13:54:38;5.22;;;3.03;;
22034;SDS011;11181;51.002;4.356;2023-05-18T13:57:05;5.75;;;3.00;;
22034;SDS011;11181;51.002;4.356;2023-05-18T13:59:32;7.93;;;3.50;;
22034;SDS011;11181;51.002;4.356;2023-05-18T14:01:59;4.85;;;2.92;;
22034;SDS011;11181;51.002;4.356;2023-05-18T14:04:28;7.10;;;2.75;;
22034;SDS011;11181;51.002;4.356;2023-05-18T14:06:55;13.38;;;3.67;;
22034;SDS011;11181;51.002;4.356;2023-05-18T14:09:22;9.63;;;3.42;;
22034;SDS011;11181;51.002;4.356;2023-05-18T14:11:50;7.07;;;3.17;;
22034;SDS011;11181;51.002;4.356;2023-05-18T14:14:17;5.97;;;3.33;;
22034;SDS011;11181;51.002;4.356;2023-05-18T14:16:44;8.88;;;3.40;;
22034;SDS011;11181;51.002;4.356;2023-05-18T14:19:10;4.93;;;3.25;;
22034;SDS011;11181;51.002;4.356;2023-05-18T14:21:39;6.97;;;3.15;;
22034;SDS011;11181;51.002;4.356;2023-05-18T14:24:06;6.00;;;3.10;;
22034;SDS011;11181;51.002;4.356;2023-05-18T14:26:34;6.57;;;3.60;;
22034;SDS011;11181;51.002;4.356;2023-05-18T14:29:01;5.45;;;2.65;;
22034;SDS011;11181;51.002;4.356;2023-05-18T14:31:28;6.38;;;2.88;;
22034;SDS011;11181;51.002;4.356;2023-05-18T14:33:55;8.52;;;3.08;;
22034;SDS011;11181;51.002;4.356;2023-05-18T14:36:22;5.20;;;2.95;;
22034;SDS011;11181;51.002;4.356;2023-05-18T14:38:50;11.02;;;2.78;;
22034;SDS011;11181;51.002;4.356;2023-05-18T14:41:17;5.80;;;2.30;;
22034;SDS011;11181;51.002;4.356;2023-05-18T14:43:45;7.20;;;3.28;;
22034;SDS011;11181;51.002;4.356;2023-05-18T14:46:15;7.55;;;2.60;;
22034;SDS011;11181;51.002;4.356;2023-05-18T14:48:42;6.30;;;3.38;;
22034;SDS011;11181;51.002;4.356;2023-05-18T14:51:08;7.70;;;3.30;;
22034;SDS011;11181;51.002;4.356;2023-05-18T14:53:35;4.30;;;2.72;;
22034;SDS011;11181;51.002;4.356;2023-05-18T14:56:04;7.78;;;2.85;;